createdAt,value
2023-05-15T00:01:40.901Z,11.60
2023-05-15T00:04:07.893Z,11.60
2023-05-15T00:06:35.096Z,11.60
2023-05-15T00:09:02.307Z,11.60
2023-05-15T00:11:29.330Z,11.70
2023-05-15T00:13:56.218Z,11.70
2023-05-15T00:16:23.252Z,11.70
2023-05-15T00:18:50.474Z,11.60
2023-05-15T00:21:17.661Z,11.60
2023-05-15T00:23:44.603Z,11.60
2023-05-15T00:26:11.533Z,11.50
2023-05-15T00:28:38.434Z,11.40
2023-05-15T00:31:05.472Z,11.40
2023-05-15T00:33:32.407Z,11.30
2023-05-15T00:35:59.374Z,11.40
2023-05-15T00:38:26.296Z,11.40
2023-05-15T00:40:55.116Z,11.30
2023-05-15T00:43:22.785Z,11.20
2023-05-15T00:45:51.667Z,11.20
2023-05-15T00:48:22.708Z,11.10
2023-05-15T00:50:51.850Z,11.00
2023-05-15T00:53:19.368Z,11.00
2023-05-15T00:55:47.294Z,11.00
2023-05-15T00:58:15.983Z,10.90
2023-05-15T01:00:48.286Z,10.90
2023-05-15T01:03:15.311Z,10.90
2023-05-15T01:05:42.390Z,10.90
2023-05-15T01:08:23.555Z,10.80
2023-05-15T01:10:52.161Z,10.80
2023-05-15T01:13:23.373Z,10.80
2023-05-15T01:15:51.169Z,10.70
2023-05-15T01:18:18.292Z,10.80
2023-05-15T01:21:05.805Z,10.80
2023-05-15T01:23:54.349Z,10.90
2023-05-15T01:26:39.172Z,10.90
2023-05-15T01:29:14.006Z,10.80
2023-05-15T01:31:44.554Z,10.80
2023-05-15T01:34:12.146Z,10.80
2023-05-15T01:36:51.278Z,10.80
2023-05-15T01:39:23.264Z,10.80
2023-05-15T01:42:04.392Z,10.70
2023-05-15T01:44:34.315Z,10.70
2023-05-15T01:47:07.152Z,10.80
2023-05-15T01:49:35.201Z,10.80
2023-05-15T01:52:37.222Z,10.70
2023-05-15T01:55:06.092Z,10.70
2023-05-15T01:57:34.234Z,10.70
2023-05-15T02:00:02.845Z,10.70
2023-05-15T02:02:30.896Z,10.60
2023-05-15T02:04:59.199Z,10.60
2023-05-15T02:07:26.950Z,10.60
2023-05-15T02:09:54.315Z,10.60
2023-05-15T02:12:22.122Z,10.60
2023-05-15T02:14:50.435Z,10.60
2023-05-15T02:17:17.981Z,10.50
2023-05-15T02:19:44.984Z,10.50
2023-05-15T02:22:12.052Z,10.50
2023-05-15T02:24:39.280Z,10.50
2023-05-15T02:27:18.681Z,10.50
2023-05-15T02:29:48.526Z,10.50
2023-05-15T02:32:48.474Z,10.50
2023-05-15T02:35:46.851Z,10.50
2023-05-15T02:38:19.006Z,10.60
2023-05-15T02:40:48.410Z,10.60
2023-05-15T02:43:17.061Z,10.60
2023-05-15T02:45:46.219Z,10.70
2023-05-15T02:48:14.181Z,10.70
2023-05-15T02:50:41.301Z,10.70
2023-05-15T02:53:10.043Z,10.80
2023-05-15T02:55:38.191Z,10.70
2023-05-15T02:58:05.473Z,10.80
2023-05-15T03:00:32.436Z,10.80
2023-05-15T03:02:59.349Z,10.80
2023-05-15T03:05:27.090Z,10.80
2023-05-15T03:07:54.251Z,10.80
2023-05-15T03:10:23.876Z,10.80
2023-05-15T03:12:50.841Z,10.80
2023-05-15T03:15:18.465Z,10.80
2023-05-15T03:17:45.602Z,10.80
2023-05-15T03:20:14.218Z,10.80
2023-05-15T03:22:41.687Z,10.90
2023-05-15T03:25:11.152Z,10.90
2023-05-15T03:27:38.405Z,10.90
2023-05-15T03:30:06.493Z,10.90
2023-05-15T03:32:33.472Z,11.00
2023-05-15T03:35:01.035Z,11.00
2023-05-15T03:37:28.171Z,11.10
2023-05-15T03:39:55.158Z,11.10
2023-05-15T03:42:23.806Z,11.20
2023-05-15T03:44:51.418Z,11.10
2023-05-15T03:47:18.570Z,11.20
2023-05-15T03:49:46.552Z,11.20
2023-05-15T03:52:14.112Z,11.30
2023-05-15T03:54:42.260Z,11.30
2023-05-15T03:57:09.307Z,11.30
2023-05-15T03:59:36.222Z,11.30
2023-05-15T04:02:05.521Z,11.40
2023-05-15T04:04:33.165Z,11.40
2023-05-15T04:07:00.893Z,11.40
2023-05-15T04:09:27.817Z,11.50
2023-05-15T04:11:54.776Z,11.50
2023-05-15T04:14:21.725Z,11.60
2023-05-15T04:16:48.691Z,11.80
2023-05-15T04:19:15.747Z,11.90
2023-05-15T04:21:42.685Z,12.10
2023-05-15T04:24:09.600Z,12.20
2023-05-15T04:26:36.822Z,12.30
2023-05-15T04:29:04.881Z,12.40
2023-05-15T04:31:35.230Z,12.50
2023-05-15T04:34:02.391Z,12.50
2023-05-15T04:36:29.356Z,12.60
2023-05-15T04:38:56.546Z,12.70
2023-05-15T04:41:23.380Z,12.70
2023-05-15T04:43:50.956Z,12.70
2023-05-15T04:46:17.888Z,12.80
2023-05-15T04:48:44.784Z,12.90
2023-05-15T04:51:12.305Z,12.90
2023-05-15T04:53:39.224Z,13.10
2023-05-15T04:56:06.348Z,13.20
2023-05-15T04:58:33.292Z,13.30
2023-05-15T05:01:03.528Z,13.40
2023-05-15T05:03:30.940Z,13.50
2023-05-15T05:05:57.910Z,13.60
2023-05-15T05:08:24.772Z,13.60
2023-05-15T05:10:57.530Z,13.70
2023-05-15T05:13:24.474Z,13.90
2023-05-15T05:15:51.512Z,13.80
2023-05-15T05:18:18.389Z,14.00
2023-05-15T05:20:45.365Z,13.90
2023-05-15T05:23:14.876Z,13.90
2023-05-15T05:25:42.135Z,14.00
2023-05-15T05:28:09.341Z,14.00
2023-05-15T05:30:36.232Z,14.10
2023-05-15T05:33:03.419Z,14.20
2023-05-15T05:35:30.502Z,14.20
2023-05-15T05:37:57.454Z,14.30
2023-05-15T05:40:24.496Z,14.30
2023-05-15T05:42:51.805Z,14.10
2023-05-15T05:45:18.771Z,14.20
2023-05-15T05:47:45.839Z,14.20
2023-05-15T05:50:12.817Z,14.20
2023-05-15T05:52:39.812Z,14.20
2023-05-15T05:55:07.016Z,14.20
2023-05-15T05:57:33.926Z,14.20
2023-05-15T06:00:00.872Z,14.20
2023-05-15T06:02:28.000Z,14.30
2023-05-15T06:04:54.960Z,14.40
2023-05-15T06:07:22.341Z,14.40
2023-05-15T06:09:49.424Z,14.50
2023-05-15T06:12:16.426Z,14.50
2023-05-15T06:14:43.329Z,14.40
2023-05-15T06:17:10.389Z,14.50
2023-05-15T06:19:37.448Z,14.40
2023-05-15T06:22:04.582Z,14.40
2023-05-15T06:24:31.631Z,14.40
2023-05-15T06:26:58.750Z,14.40
2023-05-15T06:29:26.473Z,14.30
2023-05-15T06:31:53.654Z,14.40
2023-05-15T06:34:20.634Z,14.50
2023-05-15T06:36:47.535Z,14.60
2023-05-15T06:39:14.563Z,14.70
2023-05-15T06:41:41.452Z,14.70
2023-05-15T06:44:08.390Z,14.80
2023-05-15T06:46:35.352Z,14.80
2023-05-15T06:49:02.344Z,14.70
2023-05-15T06:51:29.284Z,14.40
2023-05-15T06:53:56.283Z,14.40
2023-05-15T06:56:23.224Z,14.70
2023-05-15T06:58:50.096Z,14.80
2023-05-15T07:01:17.032Z,15.00
2023-05-15T07:03:43.962Z,15.00
2023-05-15T07:06:10.950Z,15.10
2023-05-15T07:08:37.840Z,15.10
2023-05-15T07:11:05.128Z,15.20
2023-05-15T07:13:32.010Z,15.10
2023-05-15T07:15:58.940Z,15.30
2023-05-15T07:18:25.953Z,15.30
2023-05-15T07:20:52.892Z,15.30
2023-05-15T07:23:19.829Z,15.30
2023-05-15T07:25:46.832Z,15.40
2023-05-15T07:28:13.736Z,15.50
2023-05-15T07:30:41.694Z,15.80
2023-05-15T07:33:08.619Z,16.00
2023-05-15T07:35:35.536Z,16.20
2023-05-15T07:38:02.718Z,16.30
2023-05-15T07:40:29.730Z,16.40
2023-05-15T07:42:56.772Z,16.40
2023-05-15T07:45:24.012Z,16.50
2023-05-15T07:47:51.647Z,16.40
2023-05-15T07:50:18.939Z,16.20
2023-05-15T07:52:45.932Z,16.70
2023-05-15T07:55:13.098Z,16.90
2023-05-15T07:57:40.300Z,17.10
2023-05-15T08:00:13.107Z,17.10
2023-05-15T08:02:41.012Z,17.00
2023-05-15T08:05:08.524Z,16.90
2023-05-15T08:07:35.844Z,17.00
2023-05-15T08:10:06.293Z,17.20
2023-05-15T08:12:34.184Z,17.20
2023-05-15T08:15:01.248Z,17.10
2023-05-15T08:17:28.268Z,17.20
2023-05-15T08:19:56.226Z,17.10
2023-05-15T08:22:23.232Z,17.20
2023-05-15T08:24:50.415Z,17.40
2023-05-15T08:27:17.331Z,17.40
2023-05-15T08:29:45.161Z,17.40
2023-05-15T08:32:12.077Z,17.50
2023-05-15T08:34:39.194Z,17.40
2023-05-15T08:37:06.983Z,17.30
2023-05-15T08:39:34.004Z,17.30
2023-05-15T08:42:19.092Z,17.20
2023-05-15T08:44:46.518Z,17.20
2023-05-15T08:47:15.204Z,17.10
2023-05-15T08:49:48.113Z,17.20
2023-05-15T08:52:16.344Z,17.30
2023-05-15T08:54:44.647Z,17.40
2023-05-15T08:57:13.213Z,17.50
2023-05-15T08:59:40.289Z,17.40
2023-05-15T09:02:07.626Z,17.40
2023-05-15T09:04:34.669Z,17.60
2023-05-15T09:07:03.459Z,17.70
2023-05-15T09:09:33.194Z,17.80
2023-05-15T09:12:04.247Z,17.80
2023-05-15T09:14:31.269Z,17.90
2023-05-15T09:16:58.478Z,17.70
2023-05-15T09:19:25.830Z,17.60
2023-05-15T09:21:52.736Z,17.70
2023-05-15T09:24:28.426Z,18.10
2023-05-15T09:27:21.546Z,18.30
2023-05-15T09:29:51.454Z,18.20
2023-05-15T09:32:19.047Z,18.10
2023-05-15T09:34:46.580Z,18.10
2023-05-15T09:37:30.103Z,18.20
2023-05-15T09:40:09.590Z,18.10
2023-05-15T09:42:37.107Z,18.00
2023-05-15T09:45:04.643Z,18.30
2023-05-15T09:47:31.783Z,18.40
2023-05-15T09:49:58.922Z,18.40
2023-05-15T09:52:27.674Z,18.40
2023-05-15T09:54:54.877Z,18.20
2023-05-15T09:57:23.469Z,18.10
2023-05-15T09:59:50.654Z,18.10
2023-05-15T10:02:25.191Z,17.90
2023-05-15T10:04:59.089Z,17.80
2023-05-15T10:07:29.226Z,17.80
2023-05-15T10:09:56.566Z,18.00
2023-05-15T10:12:25.006Z,18.20
2023-05-15T10:14:53.955Z,18.40
2023-05-15T10:17:21.560Z,18.60
2023-05-15T10:22:26.100Z,18.30
2023-05-15T10:25:01.305Z,18.00
2023-05-15T10:27:29.127Z,17.90
2023-05-15T10:29:57.840Z,17.90
2023-05-15T10:32:26.212Z,17.20
2023-05-15T10:34:54.918Z,17.00
2023-05-15T10:37:23.007Z,16.80
2023-05-15T10:39:53.313Z,16.50
2023-05-15T10:42:21.029Z,16.20
2023-05-15T10:44:48.888Z,15.60
2023-05-15T10:47:16.040Z,15.20
2023-05-15T10:49:43.089Z,14.60
2023-05-15T10:52:10.104Z,14.10
2023-05-15T10:54:37.335Z,13.90
2023-05-15T10:57:06.859Z,13.70
2023-05-15T10:59:35.060Z,13.60
2023-05-15T11:02:21.796Z,13.50
2023-05-15T11:04:53.561Z,13.40
2023-05-15T11:07:21.331Z,13.40
2023-05-15T11:09:48.281Z,13.40
2023-05-15T11:12:15.318Z,13.40
2023-05-15T11:15:08.045Z,13.30
2023-05-15T11:17:35.143Z,13.30
2023-05-15T11:20:02.236Z,13.20
2023-05-15T11:22:36.209Z,13.30
2023-05-15T11:25:08.797Z,13.40
2023-05-15T11:27:43.077Z,13.40
2023-05-15T11:30:22.113Z,13.50
2023-05-15T11:33:05.250Z,13.50
2023-05-15T11:35:38.967Z,13.50
2023-05-15T11:38:14.372Z,13.50
2023-05-15T11:40:44.439Z,13.40
2023-05-15T11:43:27.293Z,13.30
2023-05-15T11:46:03.285Z,13.30
2023-05-15T11:48:39.312Z,13.30
2023-05-15T11:51:30.229Z,13.20
2023-05-15T11:54:00.295Z,13.20
2023-05-15T11:56:30.933Z,13.20
2023-05-15T11:58:59.684Z,13.20
2023-05-15T12:01:26.933Z,13.30
2023-05-15T12:03:55.123Z,13.40
2023-05-15T12:06:22.955Z,13.40
2023-05-15T12:08:53.796Z,13.40
2023-05-15T12:11:25.076Z,13.30
2023-05-15T12:13:54.266Z,13.20
2023-05-15T12:16:28.591Z,13.10
2023-05-15T12:18:59.023Z,13.00
2023-05-15T12:21:29.037Z,13.00
2023-05-15T12:26:27.415Z,12.90
2023-05-15T12:28:55.419Z,12.90
2023-05-15T12:31:22.576Z,12.80
2023-05-15T12:33:49.728Z,12.70
2023-05-15T12:36:21.206Z,12.70
2023-05-15T12:38:49.110Z,12.70
2023-05-15T12:41:16.397Z,12.70
2023-05-15T12:43:43.382Z,12.70
2023-05-15T12:46:13.106Z,12.70
2023-05-15T12:48:41.289Z,12.60
2023-05-15T12:51:08.937Z,12.60
2023-05-15T12:53:36.428Z,12.50
2023-05-15T12:56:04.857Z,12.60
2023-05-15T12:58:32.596Z,12.60
2023-05-15T13:00:59.577Z,12.70
2023-05-15T13:03:28.016Z,12.80
2023-05-15T13:05:55.378Z,12.80
2023-05-15T13:08:22.358Z,12.90
2023-05-15T13:11:00.000Z,12.90
2023-05-15T13:13:50.253Z,13.00
2023-05-15T13:16:24.824Z,13.00
2023-05-15T13:18:52.354Z,13.00
2023-05-15T13:21:19.805Z,13.00
2023-05-15T13:23:46.914Z,13.00
2023-05-15T13:26:14.019Z,13.10
2023-05-15T13:28:41.319Z,13.10
2023-05-15T13:31:08.426Z,13.00
2023-05-15T13:33:35.988Z,13.00
2023-05-15T13:36:03.085Z,13.00
2023-05-15T13:38:30.062Z,13.10
2023-05-15T13:40:57.141Z,13.10
2023-05-15T13:43:25.154Z,13.00
2023-05-15T13:45:53.420Z,13.00
2023-05-15T13:48:20.346Z,13.00
2023-05-15T13:50:47.450Z,13.10
2023-05-15T13:53:17.010Z,13.00
2023-05-15T13:55:47.450Z,13.10
2023-05-15T13:58:14.688Z,13.00
2023-05-15T14:00:43.681Z,13.00
2023-05-15T14:03:12.705Z,13.00
2023-05-15T14:05:41.726Z,12.90
2023-05-15T14:08:09.297Z,12.80
2023-05-15T14:10:37.514Z,12.80
2023-05-15T14:13:04.501Z,12.70
2023-05-15T14:15:31.452Z,12.60
2023-05-15T14:17:58.454Z,12.60
2023-05-15T14:20:25.683Z,12.60
2023-05-15T14:22:52.832Z,12.60
2023-05-15T14:25:19.849Z,12.50
2023-05-15T14:27:47.584Z,12.50
2023-05-15T14:30:14.728Z,12.50
2023-05-15T14:32:41.652Z,12.50
2023-05-15T14:35:08.657Z,12.50
2023-05-15T14:37:37.580Z,12.50
2023-05-15T14:40:05.233Z,12.40
2023-05-15T14:42:32.281Z,12.40
2023-05-15T14:44:59.251Z,12.40
2023-05-15T14:47:28.436Z,12.40
2023-05-15T14:49:55.791Z,12.30
2023-05-15T14:52:22.989Z,12.30
2023-05-15T14:55:00.793Z,12.30
2023-05-15T14:57:35.206Z,12.30
2023-05-15T15:00:02.233Z,12.30
2023-05-15T15:02:29.255Z,12.20
2023-05-15T15:04:56.407Z,12.20
2023-05-15T15:07:27.163Z,12.20
2023-05-15T15:09:54.089Z,12.20
2023-05-15T15:12:21.201Z,12.20
2023-05-15T15:14:48.102Z,12.20
2023-05-15T15:17:15.063Z,12.10
2023-05-15T15:19:42.088Z,12.10
2023-05-15T15:22:08.988Z,12.10
2023-05-15T15:24:35.898Z,12.20
2023-05-15T15:27:02.920Z,12.10
2023-05-15T15:29:29.792Z,12.10
2023-05-15T15:31:56.782Z,12.10
2023-05-15T15:34:23.731Z,12.10
2023-05-15T15:36:50.639Z,12.10
2023-05-15T15:39:17.709Z,12.10
2023-05-15T15:41:44.656Z,12.10
2023-05-15T15:44:11.544Z,12.00
2023-05-15T15:46:38.604Z,12.00
2023-05-15T15:49:06.764Z,12.00
2023-05-15T15:51:33.893Z,12.00
2023-05-15T15:54:00.835Z,12.00
2023-05-15T15:56:27.816Z,12.00
2023-05-15T15:58:54.717Z,12.00
2023-05-15T16:01:22.332Z,12.00
2023-05-15T16:03:49.543Z,12.00
2023-05-15T16:06:16.732Z,11.90
2023-05-15T16:08:43.682Z,11.90
2023-05-15T16:11:10.665Z,12.00
2023-05-15T16:13:38.709Z,12.00
2023-05-15T16:16:07.370Z,12.00
2023-05-15T16:18:35.107Z,12.00
2023-05-15T16:21:02.289Z,11.90
2023-05-15T16:23:32.912Z,12.00
2023-05-15T16:25:59.821Z,12.00
2023-05-15T16:28:26.799Z,12.00
2023-05-15T16:30:54.204Z,12.00
2023-05-15T16:33:21.421Z,12.00
2023-05-15T16:35:48.384Z,11.90
2023-05-15T16:38:15.910Z,11.90
2023-05-15T16:40:43.103Z,11.90
2023-05-15T16:43:10.226Z,11.90
2023-05-15T16:45:37.180Z,11.90
2023-05-15T16:48:04.499Z,11.90
2023-05-15T16:50:33.178Z,11.90
2023-05-15T16:53:00.183Z,11.90
2023-05-15T16:55:27.255Z,11.90
2023-05-15T16:57:54.277Z,12.00
2023-05-15T17:00:21.930Z,12.00
2023-05-15T17:02:50.115Z,12.00
2023-05-15T17:05:17.145Z,11.90
2023-05-15T17:07:44.898Z,11.90
2023-05-15T17:10:13.320Z,12.00
2023-05-15T17:12:40.378Z,12.00
2023-05-15T17:15:08.113Z,11.90
2023-05-15T17:17:35.090Z,12.00
2023-05-15T17:20:03.066Z,12.00
2023-05-15T17:22:30.601Z,12.00
2023-05-15T17:24:57.615Z,12.00
2023-05-15T17:27:24.692Z,12.00
2023-05-15T17:29:51.948Z,12.00
2023-05-15T17:32:19.443Z,12.10
2023-05-15T17:34:46.748Z,12.00
2023-05-15T17:37:14.397Z,12.00
2023-05-15T17:39:41.671Z,12.10
2023-05-15T17:42:08.669Z,12.10
2023-05-15T17:44:35.680Z,12.10
2023-05-15T17:47:02.645Z,12.20
2023-05-15T17:49:29.886Z,12.20
2023-05-15T17:51:56.841Z,12.20
2023-05-15T17:54:23.802Z,12.20
2023-05-15T17:56:50.793Z,12.20
2023-05-15T17:59:17.735Z,12.20
2023-05-15T18:01:45.239Z,12.20
2023-05-15T18:04:12.307Z,12.20
2023-05-15T18:06:39.674Z,12.20
2023-05-15T18:09:06.598Z,12.20
2023-05-15T18:11:33.764Z,12.20
2023-05-15T18:14:00.802Z,12.20
2023-05-15T18:16:28.060Z,12.20
2023-05-15T18:18:55.277Z,12.20
2023-05-15T18:25:10.302Z,12.20
2023-05-15T18:27:37.393Z,12.20
2023-05-15T18:30:04.808Z,12.20
2023-05-15T18:32:31.791Z,12.20
2023-05-15T18:34:59.110Z,12.20
2023-05-15T18:37:26.583Z,12.20
2023-05-15T18:39:56.727Z,12.20
2023-05-15T18:42:25.379Z,12.20
2023-05-15T18:44:52.702Z,12.20
2023-05-15T18:47:19.741Z,12.20
2023-05-15T18:49:46.909Z,12.20
2023-05-15T18:52:13.952Z,12.20
2023-05-15T18:58:22.157Z,12.20
2023-05-15T19:00:49.155Z,12.20
2023-05-15T19:03:16.436Z,12.30
2023-05-15T19:05:43.523Z,12.30
2023-05-15T19:08:10.512Z,12.30
2023-05-15T19:10:37.445Z,12.30
2023-05-15T19:13:04.815Z,12.30
2023-05-15T19:15:31.801Z,12.30
2023-05-15T19:17:58.917Z,12.30
2023-05-15T19:20:26.786Z,12.30
2023-05-15T19:22:53.871Z,12.30
2023-05-15T19:29:20.089Z,12.30
2023-05-15T19:31:47.082Z,12.30
2023-05-15T19:34:14.131Z,12.30
2023-05-15T19:36:41.024Z,12.30
2023-05-15T19:39:07.910Z,12.30
2023-05-15T19:41:34.942Z,12.30
2023-05-15T19:44:01.971Z,12.30
2023-05-15T19:46:28.901Z,12.30
2023-05-15T19:48:55.833Z,12.40
2023-05-15T19:51:22.763Z,12.30
2023-05-15T19:53:49.773Z,12.40
2023-05-15T19:56:16.711Z,12.40
2023-05-15T19:58:43.706Z,12.40
2023-05-15T20:01:10.645Z,12.40
2023-05-15T20:03:37.637Z,12.40
2023-05-15T20:06:04.850Z,12.40
2023-05-15T20:08:31.736Z,12.40
2023-05-15T20:10:58.696Z,12.40
2023-05-15T20:13:25.709Z,12.40
2023-05-15T20:16:00.034Z,12.40
2023-05-15T20:18:27.594Z,12.40
2023-05-15T20:20:54.497Z,12.40
2023-05-15T20:23:21.728Z,12.40
2023-05-15T20:25:50.539Z,12.40
2023-05-15T20:28:17.956Z,12.40
2023-05-15T20:30:47.499Z,12.40
2023-05-15T20:33:14.700Z,12.40
2023-05-15T20:35:43.547Z,12.40
2023-05-15T20:38:11.992Z,12.40
2023-05-15T20:40:39.494Z,12.40
2023-05-15T20:43:06.526Z,12.40
2023-05-15T20:45:34.171Z,12.40
2023-05-15T20:48:01.334Z,12.40
2023-05-15T20:50:28.534Z,12.30
2023-05-15T20:52:55.809Z,12.30
2023-05-15T20:55:22.960Z,12.30
2023-05-15T20:57:50.765Z,12.30
2023-05-15T21:00:18.624Z,12.30
2023-05-15T21:02:46.889Z,12.40
2023-05-15T21:05:14.442Z,12.40
2023-05-15T21:07:41.568Z,12.40
2023-05-15T21:10:09.358Z,12.40
2023-05-15T21:12:36.374Z,12.40
2023-05-15T21:15:04.447Z,12.40
2023-05-15T21:17:31.394Z,12.30
2023-05-15T21:19:58.653Z,12.30
2023-05-15T21:22:25.887Z,12.40
2023-05-15T21:24:52.892Z,12.30
2023-05-15T21:27:19.804Z,12.30
2023-05-15T21:29:46.907Z,12.30
2023-05-15T21:32:13.801Z,12.30
2023-05-15T21:34:41.133Z,12.30
2023-05-15T21:37:08.070Z,12.30
2023-05-15T21:39:34.984Z,12.30
2023-05-15T21:42:01.932Z,12.30
2023-05-15T21:44:28.866Z,12.20
2023-05-15T21:46:56.860Z,12.30
2023-05-15T21:49:23.866Z,12.30
2023-05-15T21:51:50.889Z,12.30
2023-05-15T21:54:17.807Z,12.20
2023-05-15T21:56:44.751Z,12.20
2023-05-15T21:59:14.176Z,12.20
2023-05-15T22:01:41.605Z,12.20
2023-05-15T22:04:08.888Z,12.20
2023-05-15T22:06:35.999Z,12.20
2023-05-15T22:09:03.003Z,12.30
2023-05-15T22:11:29.899Z,12.30
2023-05-15T22:13:56.864Z,12.30
2023-05-15T22:16:23.880Z,12.30
2023-05-15T22:18:51.385Z,12.30
2023-05-15T22:21:18.396Z,12.30
2023-05-15T22:23:45.761Z,12.30
2023-05-15T22:26:12.713Z,12.30
2023-05-15T22:28:39.693Z,12.30
2023-05-15T22:31:06.770Z,12.30
2023-05-15T22:33:33.700Z,12.30
2023-05-15T22:36:00.704Z,12.30
2023-05-15T22:38:27.777Z,12.30
2023-05-15T22:40:54.728Z,12.30
2023-05-15T22:43:22.575Z,12.30
2023-05-15T22:45:49.649Z,12.30
2023-05-15T22:48:16.553Z,12.30
2023-05-15T22:50:44.823Z,12.30
2023-05-15T22:53:11.735Z,12.30
2023-05-15T22:55:38.652Z,12.30
2023-05-15T22:58:06.016Z,12.30
2023-05-15T23:00:33.695Z,12.20
2023-05-15T23:03:00.816Z,12.30
2023-05-15T23:05:27.942Z,12.20
2023-05-15T23:07:54.886Z,12.20
2023-05-15T23:10:22.004Z,12.20
2023-05-15T23:12:48.913Z,12.30
2023-05-15T23:15:16.435Z,12.20
2023-05-15T23:17:43.434Z,12.30
2023-05-15T23:20:10.765Z,12.20
2023-05-15T23:22:39.259Z,12.30
2023-05-15T23:25:07.613Z,12.30
2023-05-15T23:27:34.722Z,12.20
2023-05-15T23:30:02.088Z,12.20
2023-05-15T23:32:29.137Z,12.20
2023-05-15T23:34:58.402Z,12.20
2023-05-15T23:37:25.972Z,12.20
2023-05-15T23:39:55.419Z,12.10
2023-05-15T23:42:23.189Z,12.10
2023-05-15T23:44:51.255Z,12.10
2023-05-15T23:47:18.257Z,12.00
2023-05-15T23:49:45.226Z,12.00
2023-05-15T23:52:12.103Z,12.10
2023-05-15T23:54:40.376Z,12.10
2023-05-15T23:57:07.292Z,12.10
2023-05-15T23:59:34.208Z,12.10
